Observation data for Morton on 07/05/2020      Previous  Date  Next       Current Mesonet Observations  Soil Data  Daily Summary Page  Observations in Plain Language
KMNS 050500Z 10008KT 26/13 A3002 RMK A01 T02580126  RH  046%=      5-min Rain = 0
KMNS 050505Z 10008KT 26/13 A3002 RMK A01 T02560126  RH  046%=      5-min Rain = 0
KMNS 050510Z 11007KT 25/13 A3002 RMK A01 T02540126  RH  047%=      5-min Rain = 0
KMNS 050515Z 11007KT 25/13 A3002 RMK A01 T02530127  RH  047%=      5-min Rain = 0
KMNS 050520Z 10009KT 25/13 A3002 RMK A01 T02540128  RH  047%=      5-min Rain = 0
KMNS 050525Z 09009KT 26/13 A3002 RMK A01 T02550128  RH  047%=      5-min Rain = 0
KMNS 050530Z 08007KT 25/13 A3002 RMK A01 T02510130  RH  049%=      5-min Rain = 0
KMNS 050535Z 09008KT 25/13 A3002 RMK A01 T02490130  RH  049%=      5-min Rain = 0
KMNS 050540Z 09008KT 25/13 A3002 RMK A01 T02520131  RH  049%=      5-min Rain = 0
KMNS 050545Z 08008KT 25/13 A3003 RMK A01 T02540133  RH  049%=      5-min Rain = 0
KMNS 050550Z 34014G28KT 25/14 A3007 RMK A01 T02530138  RH  051%=      5-min Rain = 0
KMNS 050555Z 34022G28KT 24/15 A3008 RMK A01 T02370150  RH  061%=      5-min Rain = 0
KMNS 050600Z 35021G35KT 25/15 A3008 RMK A01 T02460147  RH  057%=      5-min Rain = 0
KMNS 050605Z 35020G34KT 25/14 A3009 RMK A01 T02540143  RH  053%=      5-min Rain = 0
KMNS 050610Z 35021G28KT 24/15 A301 RMK A01 T02390150  RH  060%=      5-min Rain = 0
KMNS 050615Z 35026G34KT 24/15 A301 RMK A01 T02420147  RH  058%=      5-min Rain = 0
KMNS 050620Z 36027G33KT 24/15 A301 RMK A01 T02400149  RH  059%=      5-min Rain = 0
KMNS 050625Z 35023KT 23/16 A3011 RMK A01 T02300160  RH  068%=      5-min Rain = 0
KMNS 050630Z 35021KT 22/17 A3011 RMK A01 T02210166  RH  074%=      5-min Rain = 0
KMNS 050635Z 34020G27KT 22/17 A3011 RMK A01 T02170168  RH  077%=      5-min Rain = 0
KMNS 050640Z 34017G24KT 21/17 A3012 RMK A01 T02130170  RH  080%=      5-min Rain = 0
KMNS 050645Z 35016G21KT 21/17 A3012 RMK A01 T02100171  RH  082%=      5-min Rain = 0.01
KMNS 050650Z 36014KT 21/17 A3011 RMK A01 T02110171  RH  082%=      5-min Rain = 0.01
KMNS 050655Z 35013KT 21/17 A3012 RMK A01 T02100170  RH  082%=      5-min Rain = 0.03
KMNS 050700Z 35011KT 21/17 A3012 RMK A01 T02070170  RH  084%=      5-min Rain = 0.03
KMNS 050705Z 34010KT 21/17 A3013 RMK A01 T02050171  RH  085%=      5-min Rain = 0.01
KMNS 050710Z 00012KT 20/17 A3013 RMK A01 T02030172  RH  087%=      5-min Rain = 0.01
KMNS 050715Z 01013KT 20/17 A3014 RMK A01 T02030172  RH  087%=      5-min Rain = 0
KMNS 050720Z 02014KT 21/17 A3014 RMK A01 T02050174  RH  087%=      5-min Rain = 0.01
KMNS 050725Z 02012KT 21/18 A3014 RMK A01 T02090175  RH  085%=      5-min Rain = 0
KMNS 050730Z 01015KT 21/18 A3015 RMK A01 T02110176  RH  085%=      5-min Rain = 0
KMNS 050735Z 01016KT 21/18 A3015 RMK A01 T02100176  RH  085%=      5-min Rain = 0.01
KMNS 050740Z 01015KT 21/18 A3016 RMK A01 T02090176  RH  085%=      5-min Rain = 0.01
KMNS 050745Z 01013KT 21/18 A3016 RMK A01 T02080177  RH  087%=      5-min Rain = 0
KMNS 050750Z 02010KT 21/18 A3016 RMK A01 T02070178  RH  088%=      5-min Rain = 0
KMNS 050755Z 02010KT 21/18 A3016 RMK A01 T02070176  RH  087%=      5-min Rain = 0
KMNS 050800Z 03009KT 21/17 A3016 RMK A01 T02070173  RH  085%=      5-min Rain = 0
KMNS 050805Z 03009KT 21/17 A3015 RMK A01 T02070171  RH  084%=      5-min Rain = 0
KMNS 050810Z 02011KT 21/17 A3015 RMK A01 T02060170  RH  084%=      5-min Rain = 0.01
KMNS 050815Z 02011KT 21/17 A3015 RMK A01 T02050169  RH  084%=      5-min Rain = 0
KMNS 050820Z 05008KT 21/17 A3014 RMK A01 T02050169  RH  084%=      5-min Rain = 0
KMNS 050825Z 10005KT 20/17 A3014 RMK A01 T02040171  RH  085%=      5-min Rain = 0
KMNS 050830Z 08006KT 20/17 A3014 RMK A01 T02030171  RH  086%=      5-min Rain = 0
KMNS 050835Z 08010KT 20/17 A3013 RMK A01 T02030173  RH  088%=      5-min Rain = 0
KMNS 050840Z 06010KT 20/17 A3012 RMK A01 T02020172  RH  087%=      5-min Rain = 0
KMNS 050845Z 03009KT 20/17 A3013 RMK A01 T02040172  RH  086%=      5-min Rain = 0
KMNS 050850Z 03013G18KT 20/17 A3013 RMK A01 T02040173  RH  086%=      5-min Rain = 0
KMNS 050855Z 03016KT 20/17 A3012 RMK A01 T02040170  RH  085%=      5-min Rain = 0
KMNS 050900Z 04015KT 20/17 A3011 RMK A01 T02030170  RH  085%=      5-min Rain = 0
KMNS 050905Z 03014KT 20/17 A3011 RMK A01 T02030169  RH  085%=      5-min Rain = 0
KMNS 050910Z 04013KT 20/17 A3009 RMK A01 T02030168  RH  084%=      5-min Rain = 0
KMNS 050915Z 05014KT 20/17 A3009 RMK A01 T02040167  RH  083%=      5-min Rain = 0
KMNS 050920Z 06013KT 20/17 A3008 RMK A01 T02040166  RH  083%=      5-min Rain = 0
KMNS 050925Z 06011KT 20/17 A3007 RMK A01 T02040166  RH  083%=      5-min Rain = 0
KMNS 050930Z 06011KT 20/17 A3007 RMK A01 T02030165  RH  083%=      5-min Rain = 0
KMNS 050935Z 07010KT 20/16 A3006 RMK A01 T02030164  RH  082%=      5-min Rain = 0
KMNS 050940Z 08009KT 20/16 A3005 RMK A01 T02030162  RH  081%=      5-min Rain = 0
KMNS 050945Z 08009KT 21/16 A3005 RMK A01 T02050160  RH  079%=      5-min Rain = 0
KMNS 050950Z 08009KT 20/16 A3004 RMK A01 T02040160  RH  079%=      5-min Rain = 0
KMNS 050955Z 07009KT 20/16 A3004 RMK A01 T02040160  RH  079%=      5-min Rain = 0
KMNS 051000Z 08008KT 21/16 A3004 RMK A01 T02050160  RH  079%=      5-min Rain = 0
KMNS 051005Z 09008KT 21/16 A3003 RMK A01 T02070158  RH  077%=      5-min Rain = 0
KMNS 051010Z 10007KT 21/16 A3003 RMK A01 T02080159  RH  077%=      5-min Rain = 0
KMNS 051015Z 10008KT 21/16 A3003 RMK A01 T02080159  RH  077%=      5-min Rain = 0
KMNS 051020Z 09010KT 21/16 A3003 RMK A01 T02100157  RH  075%=      5-min Rain = 0
KMNS 051025Z 10008KT 21/16 A3002 RMK A01 T02100158  RH  075%=      5-min Rain = 0
KMNS 051030Z 14006KT 21/16 A3002 RMK A01 T02090160  RH  077%=      5-min Rain = 0
KMNS 051035Z 12006KT 21/16 A3002 RMK A01 T02090158  RH  076%=      5-min Rain = 0
KMNS 051040Z 11006KT 21/16 A3001 RMK A01 T02090158  RH  076%=      5-min Rain = 0
KMNS 051045Z 12006KT 21/16 A3001 RMK A01 T02070159  RH  078%=      5-min Rain = 0
KMNS 051050Z 12005KT 21/16 A3001 RMK A01 T02070158  RH  077%=      5-min Rain = 0
KMNS 051055Z 14005KT 21/16 A3001 RMK A01 T02070159  RH  077%=      5-min Rain = 0
KMNS 051100Z 15005KT 21/16 A3001 RMK A01 T02070158  RH  077%=      5-min Rain = 0
KMNS 051105Z 17004KT 21/16 A3001 RMK A01 T02090158  RH  076%=      5-min Rain = 0
KMNS 051110Z 20006KT 21/16 A3002 RMK A01 T02080162  RH  079%=      5-min Rain = 0.01
KMNS 051115Z 22008KT 21/16 A3002 RMK A01 T02070162  RH  079%=      5-min Rain = 0
KMNS 051120Z 21010KT 21/16 A3002 RMK A01 T02100160  RH  076%=      5-min Rain = 0
KMNS 051125Z 20008KT 21/16 A3002 RMK A01 T02120158  RH  075%=      5-min Rain = 0
KMNS 051130Z 19006KT 21/16 A3002 RMK A01 T02110160  RH  076%=      5-min Rain = 0
KMNS 051135Z 19005KT 21/16 A3001 RMK A01 T02100159  RH  076%=      5-min Rain = 0
KMNS 051140Z 16003KT 21/15 A3001 RMK A01 T02120151  RH  072%=      5-min Rain = 0
KMNS 051145Z 15004KT 22/15 A3001 RMK A01 T02180148  RH  067%=      5-min Rain = 0
KMNS 051150Z 14005KT 22/15 A3001 RMK A01 T02190151  RH  068%=      5-min Rain = 0
KMNS 051155Z 10003KT 22/16 A3001 RMK A01 T02150159  RH  074%=      5-min Rain = 0
KMNS 051200Z 05001KT 21/16 A3001 RMK A01 T02130156  RH  073%=      5-min Rain = 0
KMNS 051205Z 07002KT 22/15 A3001 RMK A01 T02180153  RH  070%=      5-min Rain = 0
KMNS 051210Z 08001KT 22/16 A3002 RMK A01 T02190155  RH  070%=      5-min Rain = 0
KMNS 051215Z 11001KT 22/15 A3002 RMK A01 T02170153  RH  070%=      5-min Rain = 0
KMNS 051220Z 11002KT 22/15 A3002 RMK A01 T02200154  RH  070%=      5-min Rain = 0
KMNS 051225Z 05003KT 22/16 A3003 RMK A01 T02180158  RH  072%=      5-min Rain = 0
KMNS 051230Z 34003KT 22/16 A3003 RMK A01 T02180158  RH  072%=      5-min Rain = 0
KMNS 051235Z 33007KT 21/16 A3004 RMK A01 T02140163  RH  076%=      5-min Rain = 0
KMNS 051240Z 34008KT 21/16 A3004 RMK A01 T02130163  RH  077%=      5-min Rain = 0
KMNS 051245Z 32008KT 21/16 A3004 RMK A01 T02140160  RH  075%=      5-min Rain = 0
KMNS 051250Z 32006KT 22/16 A3004 RMK A01 T02150163  RH  076%=      5-min Rain = 0
KMNS 051255Z 32007KT 21/16 A3005 RMK A01 T02140161  RH  075%=      5-min Rain = 0
KMNS 051300Z 31009KT 21/16 A3005 RMK A01 T02140160  RH  075%=      5-min Rain = 0
KMNS 051305Z 31007KT 21/16 A3005 RMK A01 T02120163  RH  077%=      5-min Rain = 0
KMNS 051310Z 32007KT 21/17 A3005 RMK A01 T02120165  RH  078%=      5-min Rain = 0
KMNS 051315Z 33007KT 21/17 A3005 RMK A01 T02130167  RH  078%=      5-min Rain = 0
KMNS 051320Z 32008KT 22/17 A3005 RMK A01 T02160167  RH  078%=      5-min Rain = 0
KMNS 051325Z 34008KT 22/17 A3005 RMK A01 T02160167  RH  077%=      5-min Rain = 0
KMNS 051330Z 34008KT 22/17 A3005 RMK A01 T02170166  RH  076%=      5-min Rain = 0
KMNS 051335Z 34007KT 22/17 A3005 RMK A01 T02200166  RH  075%=      5-min Rain = 0
KMNS 051340Z 34008KT 22/16 A3005 RMK A01 T02210163  RH  073%=      5-min Rain = 0
KMNS 051345Z 34007KT 22/17 A3005 RMK A01 T02230166  RH  073%=      5-min Rain = 0
KMNS 051350Z 35007KT 23/17 A3006 RMK A01 T02250167  RH  073%=      5-min Rain = 0
KMNS 051355Z 01008KT 23/17 A3006 RMK A01 T02260173  RH  076%=      5-min Rain = 0
KMNS 051400Z 01008KT 23/17 A3007 RMK A01 T02250172  RH  076%=      5-min Rain = 0
KMNS 051405Z 00008KT 22/17 A3007 RMK A01 T02240171  RH  075%=      5-min Rain = 0
KMNS 051410Z 36007KT 23/17 A3007 RMK A01 T02250170  RH  075%=      5-min Rain = 0
KMNS 051415Z 01007KT 23/17 A3008 RMK A01 T02270169  RH  074%=      5-min Rain = 0
KMNS 051420Z 00007KT 23/17 A3008 RMK A01 T02290169  RH  072%=      5-min Rain = 0
KMNS 051425Z 00006KT 23/17 A3009 RMK A01 T02310166  RH  070%=      5-min Rain = 0
KMNS 051430Z 01006KT 24/16 A3009 RMK A01 T02350164  RH  068%=      5-min Rain = 0
KMNS 051435Z 02006KT 24/17 A3009 RMK A01 T02380165  RH  067%=      5-min Rain = 0
KMNS 051440Z 03006KT 24/17 A3009 RMK A01 T02410168  RH  067%=      5-min Rain = 0
KMNS 051445Z 03006KT 24/17 A3009 RMK A01 T02430166  RH  065%=      5-min Rain = 0
KMNS 051450Z 03006KT 25/16 A3009 RMK A01 T02450163  RH  063%=      5-min Rain = 0
KMNS 051455Z 04006KT 25/16 A3009 RMK A01 T02470164  RH  063%=      5-min Rain = 0
KMNS 051500Z 03005KT 25/17 A3009 RMK A01 T02480167  RH  064%=      5-min Rain = 0
KMNS 051505Z 03006KT 25/17 A3009 RMK A01 T02500168  RH  064%=      5-min Rain = 0
KMNS 051510Z 05007KT 25/17 A3009 RMK A01 T02520166  RH  062%=      5-min Rain = 0
KMNS 051515Z 04008KT 25/16 A3009 RMK A01 T02540161  RH  059%=      5-min Rain = 0
KMNS 051520Z 06007KT 26/16 A3009 RMK A01 T02550163  RH  059%=      5-min Rain = 0
KMNS 051525Z 05007KT 26/16 A3009 RMK A01 T02550161  RH  059%=      5-min Rain = 0
KMNS 051530Z 06007KT 26/16 A3008 RMK A01 T02580162  RH  058%=      5-min Rain = 0
KMNS 051535Z 07008KT 26/16 A3008 RMK A01 T02610164  RH  058%=      5-min Rain = 0
KMNS 051540Z 07007KT 26/16 A3008 RMK A01 T02590164  RH  058%=      5-min Rain = 0
KMNS 051545Z 08008G13KT 26/16 A3008 RMK A01 T02600160  RH  057%=      5-min Rain = 0
KMNS 051550Z 07007KT 26/16 A3008 RMK A01 T02620163  RH  057%=      5-min Rain = 0
KMNS 051555Z 06008KT 26/17 A3008 RMK A01 T02590165  RH  059%=      5-min Rain = 0
KMNS 051600Z 06009KT 26/17 A3008 RMK A01 T02610166  RH  058%=      5-min Rain = 0
KMNS 051605Z 06007KT 26/16 A3008 RMK A01 T02580162  RH  058%=      5-min Rain = 0
KMNS 051610Z 07008KT 26/16 A3008 RMK A01 T02620162  RH  057%=      5-min Rain = 0
KMNS 051615Z 06009KT 26/17 A3008 RMK A01 T02620170  RH  060%=      5-min Rain = 0
KMNS 051620Z 05008KT 26/18 A3008 RMK A01 T02610175  RH  062%=      5-min Rain = 0
KMNS 051625Z 07009KT 26/17 A3008 RMK A01 T02630173  RH  061%=      5-min Rain = 0
KMNS 051630Z 06009KT 26/17 A3008 RMK A01 T02620171  RH  060%=      5-min Rain = 0
KMNS 051635Z 06008KT 26/17 A3008 RMK A01 T02640170  RH  059%=      5-min Rain = 0
KMNS 051640Z 06008KT 27/16 A3008 RMK A01 T02650164  RH  057%=      5-min Rain = 0
KMNS 051645Z 06009KT 27/16 A3008 RMK A01 T02650159  RH  054%=      5-min Rain = 0
KMNS 051650Z 07008KT 27/16 A3008 RMK A01 T02680159  RH  054%=      5-min Rain = 0
KMNS 051655Z 06009KT 27/16 A3008 RMK A01 T02720158  RH  052%=      5-min Rain = 0
KMNS 051700Z 06008KT 27/16 A3008 RMK A01 T02700156  RH  052%=      5-min Rain = 0
KMNS 051705Z 06009KT 27/15 A3008 RMK A01 T02730153  RH  050%=      5-min Rain = 0
KMNS 051710Z 08008KT 28/15 A3008 RMK A01 T02770147  RH  047%=      5-min Rain = 0
KMNS 051715Z 06008KT 28/15 A3008 RMK A01 T02780147  RH  047%=      5-min Rain = 0
KMNS 051720Z 08007G13KT 28/14 A3008 RMK A01 T02810143  RH  045%=      5-min Rain = 0
KMNS 051725Z 07008KT 28/14 A3008 RMK A01 T02830142  RH  044%=      5-min Rain = 0
KMNS 051730Z 07010KT 28/14 A3008 RMK A01 T02820140  RH  043%=      5-min Rain = 0
KMNS 051735Z 10008G13KT 29/14 A3008 RMK A01 T02870138  RH  042%=      5-min Rain = 0
KMNS 051740Z 10009KT 29/14 A3008 RMK A01 T02870135  RH  041%=      5-min Rain = 0
KMNS 051745Z 08006KT 29/13 A3008 RMK A01 T02880134  RH  040%=      5-min Rain = 0
KMNS 051750Z 07008KT 29/14 A3008 RMK A01 T02920140  RH  041%=      5-min Rain = 0
KMNS 051755Z 06009KT 29/14 A3007 RMK A01 T02870137  RH  041%=      5-min Rain = 0
KMNS 051800Z 06008KT 29/14 A3007 RMK A01 T02870135  RH  041%=      5-min Rain = 0
KMNS 051805Z 05008KT 29/13 A3007 RMK A01 T02890134  RH  040%=      5-min Rain = 0
KMNS 051810Z 07008KT 29/14 A3007 RMK A01 T02920135  RH  040%=      5-min Rain = 0
KMNS 051815Z 06009KT 29/14 A3007 RMK A01 T02920136  RH  040%=      5-min Rain = 0
KMNS 051820Z 06009KT 29/14 A3007 RMK A01 T02910135  RH  040%=      5-min Rain = 0
KMNS 051825Z 07008G13KT 30/14 A3007 RMK A01 T02960135  RH  039%=      5-min Rain = 0
KMNS 051830Z 06009KT 30/13 A3007 RMK A01 T02950132  RH  038%=      5-min Rain = 0
KMNS 051835Z 08007KT 30/13 A3006 RMK A01 T02970132  RH  038%=      5-min Rain = 0
KMNS 051840Z 10005G11KT 29/13 A3006 RMK A01 T02940128  RH  038%=      5-min Rain = 0
KMNS 051845Z 09008KT 30/13 A3006 RMK A01 T02980130  RH  037%=      5-min Rain = 0
KMNS 051850Z 09004G11KT 30/13 A3006 RMK A01 T02980128  RH  037%=      5-min Rain = 0
KMNS 051855Z 10006G13KT 30/13 A3006 RMK A01 T02970127  RH  036%=      5-min Rain = 0
KMNS 051900Z 13003KT 30/13 A3006 RMK A01 T02980125  RH  036%=      5-min Rain = 0
KMNS 051905Z 13007G12KT 31/13 A3006 RMK A01 T03050131  RH  036%=      5-min Rain = 0
KMNS 051910Z 11005KT 30/13 A3006 RMK A01 T03020127  RH  036%=      5-min Rain = 0
KMNS 051915Z 12004G10KT 30/13 A3006 RMK A01 T03010126  RH  035%=      5-min Rain = 0
KMNS 051920Z 13006KT 30/13 A3005 RMK A01 T03030125  RH  035%=      5-min Rain = 0
KMNS 051925Z 11008G13KT 31/13 A3005 RMK A01 T03090127  RH  034%=      5-min Rain = 0
KMNS 051930Z 11003G8KT 31/12 A3005 RMK A01 T03050123  RH  034%=      5-min Rain = 0
KMNS 051935Z 11004KT 31/13 A3005 RMK A01 T03100126  RH  034%=      5-min Rain = 0
KMNS 051940Z 08007G12KT 31/12 A3004 RMK A01 T03110124  RH  033%=      5-min Rain = 0
KMNS 051945Z 06005KT 31/12 A3004 RMK A01 T03070123  RH  034%=      5-min Rain = 0
KMNS 051950Z 11008G13KT 31/12 A3004 RMK A01 T03120124  RH  033%=      5-min Rain = 0
KMNS 051955Z 09006KT 31/12 A3004 RMK A01 T03130123  RH  033%=      5-min Rain = 0
KMNS 052000Z 12002KT 32/12 A3003 RMK A01 T03150124  RH  032%=      5-min Rain = 0
KMNS 052005Z 11007KT 31/12 A3003 RMK A01 T03130122  RH  032%=      5-min Rain = 0
KMNS 052010Z 17007G13KT 32/12 A3003 RMK A01 T03160123  RH  032%=      5-min Rain = 0
KMNS 052015Z 15007KT 32/12 A3002 RMK A01 T03170124  RH  032%=      5-min Rain = 0
KMNS 052020Z 16004G9KT 32/12 A3002 RMK A01 T03190122  RH  031%=      5-min Rain = 0
KMNS 052025Z 13005KT 32/12 A3002 RMK A01 T03190121  RH  031%=      5-min Rain = 0
KMNS 052030Z 11007KT 32/12 A3002 RMK A01 T03180120  RH  031%=      5-min Rain = 0
KMNS 052035Z 00002KT 32/12 A3002 RMK A01 T03160117  RH  031%=      5-min Rain = 0
KMNS 052040Z 19004G9KT 32/12 A3001 RMK A01 T03170120  RH  031%=      5-min Rain = 0
KMNS 052045Z 16006KT 32/12 A3001 RMK A01 T03240122  RH  030%=      5-min Rain = 0
KMNS 052050Z 16004KT 32/12 A3001 RMK A01 T03220120  RH  030%=      5-min Rain = 0
KMNS 052055Z 21007G12KT 32/12 A30 RMK A01 T03230122  RH  031%=      5-min Rain = 0
KMNS 052100Z 17004KT 32/12 A30 RMK A01 T03230119  RH  030%=      5-min Rain = 0
KMNS 052105Z 17003KT 32/12 A30 RMK A01 T03200118  RH  030%=      5-min Rain = 0
KMNS 052110Z 03004KT 33/12 A2999 RMK A01 T03260123  RH  030%=      5-min Rain = 0
KMNS 052115Z 10004G9KT 33/12 A2999 RMK A01 T03250122  RH  030%=      5-min Rain = 0
KMNS 052120Z 13007KT 33/12 A2999 RMK A01 T03290121  RH  029%=      5-min Rain = 0
KMNS 052125Z 15007KT 33/12 A2999 RMK A01 T03280122  RH  030%=      5-min Rain = 0
KMNS 052130Z 18006KT 32/12 A2999 RMK A01 T03240118  RH  029%=      5-min Rain = 0
KMNS 052135Z 25003KT 33/12 A2999 RMK A01 T03250118  RH  029%=      5-min Rain = 0
KMNS 052140Z 23004KT 33/12 A2998 RMK A01 T03310120  RH  029%=      5-min Rain = 0
KMNS 052145Z 28003KT 33/12 A2998 RMK A01 T03320119  RH  028%=      5-min Rain = 0
KMNS 052150Z 30002KT 33/12 A2998 RMK A01 T03330117  RH  028%=      5-min Rain = 0
KMNS 052155Z 27004KT 33/12 A2997 RMK A01 T03310117  RH  028%=      5-min Rain = 0
KMNS 052200Z 24001KT 33/12 A2997 RMK A01 T03300115  RH  028%=      5-min Rain = 0
KMNS 052205Z 15003G10KT 34/12 A2997 RMK A01 T03360119  RH  028%=      5-min Rain = 0
KMNS 052210Z 17005KT 34/12 A2997 RMK A01 T03370115  RH  027%=      5-min Rain = 0
KMNS 052215Z 15005KT 34/12 A2996 RMK A01 T03350116  RH  027%=      5-min Rain = 0
KMNS 052220Z 18005KT 33/11 A2996 RMK A01 T03320113  RH  027%=      5-min Rain = 0
KMNS 052225Z 16003KT 33/11 A2996 RMK A01 T03340113  RH  027%=      5-min Rain = 0
KMNS 052230Z 13005G11KT 34/11 A2996 RMK A01 T03350113  RH  027%=      5-min Rain = 0
KMNS 052235Z 16006G12KT 34/11 A2996 RMK A01 T03360114  RH  027%=      5-min Rain = 0
KMNS 052240Z 15004KT 34/11 A2996 RMK A01 T03350113  RH  027%=      5-min Rain = 0
KMNS 052245Z 12003KT 34/11 A2996 RMK A01 T03360113  RH  027%=      5-min Rain = 0
KMNS 052250Z 14004KT 34/11 A2996 RMK A01 T03380113  RH  026%=      5-min Rain = 0
KMNS 052255Z 22004KT 34/11 A2996 RMK A01 T03380113  RH  026%=      5-min Rain = 0
KMNS 052300Z 27004KT 34/11 A2995 RMK A01 T03370114  RH  027%=      5-min Rain = 0
KMNS 052305Z 13005G12KT 34/12 A2995 RMK A01 T03410118  RH  027%=      5-min Rain = 0
KMNS 052310Z 12007KT 34/12 A2995 RMK A01 T03380118  RH  027%=      5-min Rain = 0
KMNS 052315Z 09007KT 34/12 A2994 RMK A01 T03380117  RH  027%=      5-min Rain = 0
KMNS 052320Z 08007KT 34/12 A2994 RMK A01 T03360116  RH  027%=      5-min Rain = 0
KMNS 052325Z 11005KT 34/12 A2994 RMK A01 T03360115  RH  027%=      5-min Rain = 0
KMNS 052330Z 11008KT 34/12 A2994 RMK A01 T03390115  RH  027%=      5-min Rain = 0
KMNS 052335Z 10008KT 34/12 A2994 RMK A01 T03370117  RH  027%=      5-min Rain = 0
KMNS 052340Z 08006KT 33/12 A2994 RMK A01 T03340117  RH  028%=      5-min Rain = 0
KMNS 052345Z 10003KT 34/12 A2994 RMK A01 T03350117  RH  028%=      5-min Rain = 0
KMNS 052350Z 14008KT 34/12 A2994 RMK A01 T03410121  RH  027%=      5-min Rain = 0
KMNS 052355Z 14006KT 34/12 A2994 RMK A01 T03370120  RH  028%=      5-min Rain = 0
KMNS 060000Z 09008KT 34/13 A2994 RMK A01 T03370125  RH  029%=      5-min Rain = 0
KMNS 060005Z 08009KT 34/13 A2994 RMK A01 T03350126  RH  029%=      5-min Rain = 0
KMNS 060010Z 09007KT 33/13 A2994 RMK A01 T03330125  RH  029%=      5-min Rain = 0
KMNS 060015Z 08009KT 33/13 A2994 RMK A01 T03320125  RH  030%=      5-min Rain = 0
KMNS 060020Z 07008KT 33/13 A2994 RMK A01 T03280126  RH  031%=      5-min Rain = 0
KMNS 060025Z 12007KT 33/13 A2994 RMK A01 T03250125  RH  031%=      5-min Rain = 0
KMNS 060030Z 11008KT 32/13 A2994 RMK A01 T03210125  RH  032%=      5-min Rain = 0
KMNS 060035Z 09007KT 32/13 A2994 RMK A01 T03180126  RH  032%=      5-min Rain = 0
KMNS 060040Z 08007KT 32/13 A2994 RMK A01 T03170126  RH  033%=      5-min Rain = 0
KMNS 060045Z 08006KT 32/13 A2994 RMK A01 T03150128  RH  033%=      5-min Rain = 0
KMNS 060050Z 24011G32KT 31/13 A2997 RMK A01 T03080126  RH  034%=      5-min Rain = 0
KMNS 060055Z 24025G42KT 26/12 A2996 RMK A01 T02620122  RH  043%=      5-min Rain = 0
KMNS 060100Z 25029G38KT 25/13 A2996 RMK A01 T02520132  RH  049%=      5-min Rain = 0
KMNS 060105Z 25022G30KT 24/14 A2998 RMK A01 T02440142  RH  055%=      5-min Rain = 0
KMNS 060110Z 25018G24KT 24/14 A2998 RMK A01 T02430143  RH  056%=      5-min Rain = 0
KMNS 060115Z 25019KT 24/14 A2997 RMK A01 T02400144  RH  057%=      5-min Rain = 0
KMNS 060120Z 26017G22KT 24/15 A2998 RMK A01 T02350151  RH  062%=      5-min Rain = 0
KMNS 060125Z 26011KT 23/16 A2998 RMK A01 T02340156  RH  064%=      5-min Rain = 0
KMNS 060130Z 24013KT 24/15 A2998 RMK A01 T02360151  RH  062%=      5-min Rain = 0
KMNS 060135Z 23015G20KT 24/14 A2997 RMK A01 T02430143  RH  056%=      5-min Rain = 0
KMNS 060140Z 22020G30KT 25/14 A2998 RMK A01 T02480139  RH  053%=      5-min Rain = 0
KMNS 060145Z 21020G27KT 23/15 A2998 RMK A01 T02300150  RH  063%=      5-min Rain = 0
KMNS 060150Z 21018G23KT 23/16 A2999 RMK A01 T02260156  RH  068%=      5-min Rain = 0
KMNS 060155Z 21017KT 23/16 A2998 RMK A01 T02300156  RH  066%=      5-min Rain = 0
KMNS 060200Z 21015G20KT 24/15 A2998 RMK A01 T02380151  RH  061%=      5-min Rain = 0
KMNS 060205Z 20016KT 24/15 A2998 RMK A01 T02420150  RH  059%=      5-min Rain = 0
KMNS 060210Z 20016KT 25/15 A2998 RMK A01 T02450145  RH  056%=      5-min Rain = 0
KMNS 060215Z 19014G19KT 25/14 A2998 RMK A01 T02460142  RH  055%=      5-min Rain = 0
KMNS 060220Z 19012KT 25/14 A2998 RMK A01 T02500135  RH  051%=      5-min Rain = 0
KMNS 060225Z 21012KT 25/13 A2999 RMK A01 T02530129  RH  048%=      5-min Rain = 0
KMNS 060230Z 23011G16KT 25/13 A30 RMK A01 T02540126  RH  047%=      5-min Rain = 0
KMNS 060235Z 25008KT 25/13 A30 RMK A01 T02530130  RH  048%=      5-min Rain = 0
KMNS 060240Z 24005KT 26/12 A30 RMK A01 T02560123  RH  045%=      5-min Rain = 0
KMNS 060245Z 32006G14KT 25/14 A3002 RMK A01 T02540137  RH  050%=      5-min Rain = 0
KMNS 060250Z 33011G19KT 25/13 A3004 RMK A01 T02530132  RH  049%=      5-min Rain = 0
KMNS 060255Z 00016G21KT 25/13 A3004 RMK A01 T02530132  RH  049%=      5-min Rain = 0
KMNS 060300Z 01021G27KT 25/13 A3004 RMK A01 T02460133  RH  051%=      5-min Rain = 0
KMNS 060305Z 00023G28KT 23/15 A3004 RMK A01 T02340145  RH  060%=      5-min Rain = 0
KMNS 060310Z 36021G28KT 23/15 A3005 RMK A01 T02290150  RH  064%=      5-min Rain = 0
KMNS 060315Z 35021G27KT 23/15 A3005 RMK A01 T02280152  RH  065%=      5-min Rain = 0
KMNS 060320Z 00019G25KT 23/15 A3004 RMK A01 T02280147  RH  063%=      5-min Rain = 0
KMNS 060325Z 01017G22KT 23/14 A3004 RMK A01 T02310140  RH  059%=      5-min Rain = 0
KMNS 060330Z 35018G23KT 23/13 A3004 RMK A01 T02340131  RH  055%=      5-min Rain = 0
KMNS 060335Z 00018KT 24/12 A3003 RMK A01 T02350123  RH  051%=      5-min Rain = 0
KMNS 060340Z 01016KT 23/12 A3003 RMK A01 T02330123  RH  052%=      5-min Rain = 0
KMNS 060345Z 02014G19KT 23/12 A3003 RMK A01 T02340121  RH  051%=      5-min Rain = 0
KMNS 060350Z 04014G19KT 24/12 A3001 RMK A01 T02390117  RH  048%=      5-min Rain = 0
KMNS 060355Z 04012KT 24/12 A3001 RMK A01 T02400122  RH  049%=      5-min Rain = 0
KMNS 060400Z 03011G16KT 24/12 A3001 RMK A01 T02370124  RH  051%=      5-min Rain = 0
KMNS 060405Z 03010KT 23/13 A3001 RMK A01 T02340127  RH  053%=      5-min Rain = 0
KMNS 060410Z 02009G14KT 23/13 A3001 RMK A01 T02290132  RH  057%=      5-min Rain = 0
KMNS 060415Z 02012KT 23/13 A3002 RMK A01 T02250131  RH  057%=      5-min Rain = 0
KMNS 060420Z 03014KT 22/13 A3001 RMK A01 T02220131  RH  059%=      5-min Rain = 0
KMNS 060425Z 04013KT 22/13 A3001 RMK A01 T02220130  RH  058%=      5-min Rain = 0
KMNS 060430Z 04011KT 22/13 A3002 RMK A01 T02210132  RH  059%=      5-min Rain = 0
KMNS 060435Z 05010KT 22/14 A3002 RMK A01 T02200135  RH  061%=      5-min Rain = 0
KMNS 060440Z 04010KT 22/14 A3002 RMK A01 T02180138  RH  063%=      5-min Rain = 0
KMNS 060445Z 04010KT 22/14 A3002 RMK A01 T02180139  RH  064%=      5-min Rain = 0
KMNS 060450Z 05009KT 22/14 A3001 RMK A01 T02180141  RH  064%=      5-min Rain = 0
KMNS 060455Z 06007KT 22/14 A3002 RMK A01 T02190143  RH  065%=      5-min Rain = 0

Page generated in 0.0094 seconds.